sensor_id;sensor_type;location;lat;lon;timestamp;temperature;humidity
18662;DHT22;61528;49.456;11.098;2022-11-15T00:00:18;8.10;99.90
18662;DHT22;61528;49.456;11.098;2022-11-15T00:02:43;8.00;99.90
18662;DHT22;61528;49.456;11.098;2022-11-15T00:05:09;8.00;99.90
18662;DHT22;61528;49.456;11.098;2022-11-15T00:07:35;8.00;99.90
18662;DHT22;61528;49.456;11.098;2022-11-15T00:10:01;7.90;99.90
18662;DHT22;61528;49.456;11.098;2022-11-15T00:12:30;7.90;99.90
18662;DHT22;61528;49.456;11.098;2022-11-15T00:14:56;7.90;99.90
18662;DHT22;61528;49.456;11.098;2022-11-15T00:17:21;7.80;99.90
18662;DHT22;61528;49.456;11.098;2022-11-15T00:19:47;7.80;99.90
18662;DHT22;61528;49.456;11.098;2022-11-15T00:22:13;7.80;99.90
18662;DHT22;61528;49.456;11.098;2022-11-15T00:24:39;7.90;99.90
18662;DHT22;61528;49.456;11.098;2022-11-15T00:27:05;7.90;99.90
18662;DHT22;61528;49.456;11.098;2022-11-15T00:29:30;7.90;99.90
18662;DHT22;61528;49.456;11.098;2022-11-15T00:31:56;7.90;99.90
18662;DHT22;61528;49.456;11.098;2022-11-15T00:34:22;7.90;99.90
18662;DHT22;61528;49.456;11.098;2022-11-15T00:36:48;8.00;99.90
18662;DHT22;61528;49.456;11.098;2022-11-15T00:39:13;8.00;99.90
18662;DHT22;61528;49.456;11.098;2022-11-15T00:41:39;7.90;99.90
18662;DHT22;61528;49.456;11.098;2022-11-15T00:44:05;7.90;99.90
18662;DHT22;61528;49.456;11.098;2022-11-15T00:46:31;7.80;99.90
18662;DHT22;61528;49.456;11.098;2022-11-15T00:48:57;7.80;99.90
18662;DHT22;61528;49.456;11.098;2022-11-15T00:51:22;7.70;99.90
18662;DHT22;61528;49.456;11.098;2022-11-15T00:53:48;7.70;99.90
18662;DHT22;61528;49.456;11.098;2022-11-15T00:56:14;7.70;99.90
18662;DHT22;61528;49.456;11.098;2022-11-15T00:58:40;7.70;99.90
18662;DHT22;61528;49.456;11.098;2022-11-15T01:01:11;7.60;99.90
18662;DHT22;61528;49.456;11.098;2022-11-15T01:03:38;7.60;99.90
18662;DHT22;61528;49.456;11.098;2022-11-15T01:06:05;7.60;99.90
18662;DHT22;61528;49.456;11.098;2022-11-15T01:08:31;7.50;99.90
18662;DHT22;61528;49.456;11.098;2022-11-15T01:11:01;7.60;99.90
18662;DHT22;61528;49.456;11.098;2022-11-15T01:13:33;7.50;99.90
18662;DHT22;61528;49.456;11.098;2022-11-15T01:16:10;7.60;99.90
18662;DHT22;61528;49.456;11.098;2022-11-15T01:18:37;7.50;99.90
18662;DHT22;61528;49.456;11.098;2022-11-15T01:21:08;7.60;99.90
18662;DHT22;61528;49.456;11.098;2022-11-15T01:23:34;7.60;99.90
18662;DHT22;61528;49.456;11.098;2022-11-15T01:26:01;7.60;99.90
18662;DHT22;61528;49.456;11.098;2022-11-15T01:28:35;7.60;99.90
18662;DHT22;61528;49.456;11.098;2022-11-15T01:31:03;7.60;99.90
18662;DHT22;61528;49.456;11.098;2022-11-15T01:33:30;7.50;99.90
18662;DHT22;61528;49.456;11.098;2022-11-15T01:35:56;7.50;99.90
18662;DHT22;61528;49.456;11.098;2022-11-15T01:38:22;7.50;99.90
18662;DHT22;61528;49.456;11.098;2022-11-15T01:40:49;7.50;99.90
18662;DHT22;61528;49.456;11.098;2022-11-15T01:43:32;7.50;99.90
18662;DHT22;61528;49.456;11.098;2022-11-15T01:48:48;7.40;99.90
18662;DHT22;61528;49.456;11.098;2022-11-15T01:51:17;7.30;99.90
18662;DHT22;61528;49.456;11.098;2022-11-15T01:53:46;7.30;99.90
18662;DHT22;61528;49.456;11.098;2022-11-15T01:56:20;7.30;99.90
18662;DHT22;61528;49.456;11.098;2022-11-15T01:58:49;7.30;99.90
18662;DHT22;61528;49.456;11.098;2022-11-15T02:01:17;7.20;99.90
18662;DHT22;61528;49.456;11.098;2022-11-15T02:06:35;7.10;99.90
18662;DHT22;61528;49.456;11.098;2022-11-15T02:09:02;7.00;99.90
18662;DHT22;61528;49.456;11.098;2022-11-15T02:11:28;6.90;99.90
18662;DHT22;61528;49.456;11.098;2022-11-15T02:13:55;6.90;99.90
18662;DHT22;61528;49.456;11.098;2022-11-15T02:16:52;6.80;99.90
18662;DHT22;61528;49.456;11.098;2022-11-15T12:21:49;21.40;82.40
18662;DHT22;61528;49.456;11.098;2022-11-15T12:27:20;21.20;85.70
18662;DHT22;61528;49.456;11.098;2022-11-15T12:30:03;20.80;92.00
